sensor_id;sensor_type;location;lat;lon;timestamp;pressure;altitude;pressure_sealevel;temperature;humidity
54407;BME280;40313;50.308;30.374;2023-03-23T00:02:11;99631.59;;;1.91;100.00
54407;BME280;40313;50.308;30.374;2023-03-23T00:04:39;99634.28;;;1.86;100.00
54407;BME280;40313;50.308;30.374;2023-03-23T00:07:07;99637.78;;;1.82;100.00
54407;BME280;40313;50.308;30.374;2023-03-23T00:09:34;99625.94;;;1.75;100.00
54407;BME280;40313;50.308;30.374;2023-03-23T00:12:06;99622.66;;;1.67;100.00
54407;BME280;40313;50.308;30.374;2023-03-23T00:14:34;99620.19;;;1.62;100.00
54407;BME280;40313;50.308;30.374;2023-03-23T00:17:08;99614.13;;;1.66;100.00
54407;BME280;40313;50.308;30.374;2023-03-23T00:19:36;99609.69;;;1.71;100.00
54407;BME280;40313;50.308;30.374;2023-03-23T00:22:12;99607.81;;;1.80;100.00
54407;BME280;40313;50.308;30.374;2023-03-23T00:24:39;99612.88;;;1.86;100.00
54407;BME280;40313;50.308;30.374;2023-03-23T00:27:05;99609.09;;;2.01;100.00
54407;BME280;40313;50.308;30.374;2023-03-23T00:29:34;99610.31;;;2.23;100.00
54407;BME280;40313;50.308;30.374;2023-03-23T00:32:00;99602.94;;;2.46;100.00
54407;BME280;40313;50.308;30.374;2023-03-23T00:34:27;99589.66;;;2.63;100.00
54407;BME280;40313;50.308;30.374;2023-03-23T00:36:59;99596.88;;;2.83;100.00
54407;BME280;40313;50.308;30.374;2023-03-23T00:39:28;99584.53;;;2.96;100.00
54407;BME280;40313;50.308;30.374;2023-03-23T00:41:55;99592.09;;;3.03;100.00
54407;BME280;40313;50.308;30.374;2023-03-23T00:44:26;99586.72;;;3.11;100.00
54407;BME280;40313;50.308;30.374;2023-03-23T00:46:54;99592.66;;;3.15;100.00
54407;BME280;40313;50.308;30.374;2023-03-23T00:49:22;99595.09;;;3.19;100.00
54407;BME280;40313;50.308;30.374;2023-03-23T00:51:51;99600.13;;;3.24;100.00
54407;BME280;40313;50.308;30.374;2023-03-23T00:54:18;99591.47;;;3.26;100.00
54407;BME280;40313;50.308;30.374;2023-03-23T00:56:46;99593.97;;;3.29;100.00
54407;BME280;40313;50.308;30.374;2023-03-23T00:59:13;99590.41;;;3.34;100.00
54407;BME280;40313;50.308;30.374;2023-03-23T01:01:39;99594.78;;;3.32;100.00
54407;BME280;40313;50.308;30.374;2023-03-23T01:04:06;99587.94;;;3.31;100.00
54407;BME280;40313;50.308;30.374;2023-03-23T01:06:35;99593.13;;;3.29;100.00
54407;BME280;40313;50.308;30.374;2023-03-23T01:09:04;99588.00;;;3.27;100.00
54407;BME280;40313;50.308;30.374;2023-03-23T01:11:32;99588.94;;;3.25;100.00
54407;BME280;40313;50.308;30.374;2023-03-23T01:14:00;99589.09;;;3.19;100.00
54407;BME280;40313;50.308;30.374;2023-03-23T01:16:27;99591.88;;;3.11;100.00
54407;BME280;40313;50.308;30.374;2023-03-23T01:18:54;99588.56;;;3.07;100.00
54407;BME280;40313;50.308;30.374;2023-03-23T01:21:21;99586.84;;;3.06;100.00
54407;BME280;40313;50.308;30.374;2023-03-23T01:23:48;99582.47;;;3.08;100.00
54407;BME280;40313;50.308;30.374;2023-03-23T01:26:17;99578.19;;;3.09;100.00
54407;BME280;40313;50.308;30.374;2023-03-23T01:28:45;99575.41;;;3.17;100.00
54407;BME280;40313;50.308;30.374;2023-03-23T01:31:15;99576.97;;;3.22;100.00
54407;BME280;40313;50.308;30.374;2023-03-23T01:33:43;99577.75;;;3.26;100.00
54407;BME280;40313;50.308;30.374;2023-03-23T01:36:12;99577.69;;;3.27;100.00
54407;BME280;40313;50.308;30.374;2023-03-23T01:38:38;99574.22;;;3.28;100.00
54407;BME280;40313;50.308;30.374;2023-03-23T01:41:05;99575.03;;;3.31;100.00
54407;BME280;40313;50.308;30.374;2023-03-23T01:43:32;99572.31;;;3.35;100.00
54407;BME280;40313;50.308;30.374;2023-03-23T01:45:58;99570.50;;;3.39;100.00
54407;BME280;40313;50.308;30.374;2023-03-23T01:48:28;99573.09;;;3.39;100.00
54407;BME280;40313;50.308;30.374;2023-03-23T01:50:58;99562.81;;;3.37;100.00
54407;BME280;40313;50.308;30.374;2023-03-23T01:53:28;99570.38;;;3.43;100.00
54407;BME280;40313;50.308;30.374;2023-03-23T01:55:57;99566.94;;;3.43;100.00
54407;BME280;40313;50.308;30.374;2023-03-23T01:58:27;99566.78;;;3.49;100.00
54407;BME280;40313;50.308;30.374;2023-03-23T02:00:55;99568.38;;;3.53;100.00
54407;BME280;40313;50.308;30.374;2023-03-23T02:03:25;99571.84;;;3.52;100.00
54407;BME280;40313;50.308;30.374;2023-03-23T02:05:53;99573.56;;;3.53;100.00
54407;BME280;40313;50.308;30.374;2023-03-23T02:08:24;99566.59;;;3.55;100.00
54407;BME280;40313;50.308;30.374;2023-03-23T02:10:53;99565.72;;;3.56;100.00
54407;BME280;40313;50.308;30.374;2023-03-23T02:13:20;99565.66;;;3.58;100.00
54407;BME280;40313;50.308;30.374;2023-03-23T02:15:54;99559.69;;;3.57;100.00
54407;BME280;40313;50.308;30.374;2023-03-23T02:18:37;99566.50;;;3.58;100.00
54407;BME280;40313;50.308;30.374;2023-03-23T02:21:23;99562.03;;;3.65;100.00
54407;BME280;40313;50.308;30.374;2023-03-23T02:26:57;99563.59;;;3.99;100.00
54407;BME280;40313;50.308;30.374;2023-03-23T02:32:51;99567.63;;;4.36;100.00
54407;BME280;40313;50.308;30.374;2023-03-23T02:35:27;99555.00;;;4.54;100.00
54407;BME280;40313;50.308;30.374;2023-03-23T02:37:58;99554.53;;;4.67;100.00
54407;BME280;40313;50.308;30.374;2023-03-23T02:40:30;99548.00;;;4.82;100.00
54407;BME280;40313;50.308;30.374;2023-03-23T02:43:00;99542.41;;;4.95;100.00
54407;BME280;40313;50.308;30.374;2023-03-23T02:45:29;99548.13;;;5.05;100.00
54407;BME280;40313;50.308;30.374;2023-03-23T02:47:58;99532.38;;;5.11;100.00
54407;BME280;40313;50.308;30.374;2023-03-23T02:50:27;99533.97;;;5.15;100.00
54407;BME280;40313;50.308;30.374;2023-03-23T02:52:56;99534.75;;;5.17;100.00
54407;BME280;40313;50.308;30.374;2023-03-23T02:55:25;99537.31;;;5.17;100.00
54407;BME280;40313;50.308;30.374;2023-03-23T02:57:54;99542.38;;;5.20;100.00
54407;BME280;40313;50.308;30.374;2023-03-23T03:00:23;99536.44;;;5.18;100.00
54407;BME280;40313;50.308;30.374;2023-03-23T03:02:51;99543.25;;;5.21;100.00
54407;BME280;40313;50.308;30.374;2023-03-23T03:05:28;99541.44;;;5.23;100.00
54407;BME280;40313;50.308;30.374;2023-03-23T03:08:10;99540.59;;;5.22;100.00
54407;BME280;40313;50.308;30.374;2023-03-23T03:10:46;99541.50;;;5.21;100.00
54407;BME280;40313;50.308;30.374;2023-03-23T03:13:23;99539.78;;;5.20;100.00
54407;BME280;40313;50.308;30.374;2023-03-23T03:15:54;99542.38;;;5.20;100.00
54407;BME280;40313;50.308;30.374;2023-03-23T03:18:25;99543.25;;;5.21;100.00
54407;BME280;40313;50.308;30.374;2023-03-23T03:20:57;99539.78;;;5.22;100.00
54407;BME280;40313;50.308;30.374;2023-03-23T03:23:27;99543.13;;;5.24;100.00
54407;BME280;40313;50.308;30.374;2023-03-23T03:25:56;99536.19;;;5.24;100.00
54407;BME280;40313;50.308;30.374;2023-03-23T03:28:25;99542.19;;;5.26;100.00
54407;BME280;40313;50.308;30.374;2023-03-23T03:30:55;99534.31;;;5.29;100.00
54407;BME280;40313;50.308;30.374;2023-03-23T03:33:22;99529.91;;;5.31;100.00
54407;BME280;40313;50.308;30.374;2023-03-23T03:35:51;99530.78;;;5.32;100.00
54407;BME280;40313;50.308;30.374;2023-03-23T03:38:19;99532.44;;;5.33;100.00
54407;BME280;40313;50.308;30.374;2023-03-23T03:40:46;99529.91;;;5.31;100.00
54407;BME280;40313;50.308;30.374;2023-03-23T03:43:13;99527.50;;;5.27;100.00
54407;BME280;40313;50.308;30.374;2023-03-23T03:45:39;99525.09;;;5.22;100.00
54407;BME280;40313;50.308;30.374;2023-03-23T03:48:07;99521.91;;;5.14;100.00
54407;BME280;40313;50.308;30.374;2023-03-23T03:50:34;99522.97;;;5.08;100.00
54407;BME280;40313;50.308;30.374;2023-03-23T03:53:00;99525.75;;;5.04;100.00
54407;BME280;40313;50.308;30.374;2023-03-23T03:55:28;99526.50;;;5.06;100.00
54407;BME280;40313;50.308;30.374;2023-03-23T03:58:00;99537.56;;;5.11;100.00
54407;BME280;40313;50.308;30.374;2023-03-23T04:00:28;99540.81;;;5.16;100.00
54407;BME280;40313;50.308;30.374;2023-03-23T04:02:54;99530.38;;;5.19;100.00
54407;BME280;40313;50.308;30.374;2023-03-23T04:05:22;99531.16;;;5.21;100.00
54407;BME280;40313;50.308;30.374;2023-03-23T04:07:49;99533.72;;;5.21;100.00
54407;BME280;40313;50.308;30.374;2023-03-23T04:10:19;99535.31;;;5.25;100.00
54407;BME280;40313;50.308;30.374;2023-03-23T04:12:49;99533.41;;;5.30;100.00
54407;BME280;40313;50.308;30.374;2023-03-23T04:15:15;99532.44;;;5.33;100.00
54407;BME280;40313;50.308;30.374;2023-03-23T04:17:42;99540.50;;;5.49;100.00
54407;BME280;40313;50.308;30.374;2023-03-23T04:20:10;99537.44;;;5.61;100.00
54407;BME280;40313;50.308;30.374;2023-03-23T04:22:42;99528.66;;;5.65;100.00
54407;BME280;40313;50.308;30.374;2023-03-23T04:25:11;99541.91;;;5.80;100.00
54407;BME280;40313;50.308;30.374;2023-03-23T04:27:38;99542.53;;;5.86;100.00
54407;BME280;40313;50.308;30.374;2023-03-23T04:30:07;99532.66;;;5.96;100.00
54407;BME280;40313;50.308;30.374;2023-03-23T04:32:33;99536.81;;;6.02;100.00
54407;BME280;40313;50.308;30.374;2023-03-23T04:35:01;99530.41;;;6.11;100.00
54407;BME280;40313;50.308;30.374;2023-03-23T04:37:28;99533.59;;;6.17;100.00
54407;BME280;40313;50.308;30.374;2023-03-23T04:39:55;99528.09;;;6.25;100.00
54407;BME280;40313;50.308;30.374;2023-03-23T04:42:26;99528.53;;;6.36;100.00
54407;BME280;40313;50.308;30.374;2023-03-23T04:44:53;99527.16;;;6.48;100.00
54407;BME280;40313;50.308;30.374;2023-03-23T04:47:22;99528.47;;;6.58;100.00
54407;BME280;40313;50.308;30.374;2023-03-23T04:49:49;99535.66;;;6.72;100.00
54407;BME280;40313;50.308;30.374;2023-03-23T04:52:16;99529.84;;;6.88;100.00
54407;BME280;40313;50.308;30.374;2023-03-23T04:54:42;99524.50;;;7.12;100.00
54407;BME280;40313;50.308;30.374;2023-03-23T04:57:09;99534.03;;;7.30;100.00
54407;BME280;40313;50.308;30.374;2023-03-23T04:59:37;99530.63;;;7.49;100.00
54407;BME280;40313;50.308;30.374;2023-03-23T05:02:04;99531.84;;;7.60;100.00
54407;BME280;40313;50.308;30.374;2023-03-23T05:04:32;99522.47;;;7.75;100.00
54407;BME280;40313;50.308;30.374;2023-03-23T05:06:58;99524.38;;;7.91;100.00
54407;BME280;40313;50.308;30.374;2023-03-23T05:09:25;99521.66;;;8.11;100.00
54407;BME280;40313;50.308;30.374;2023-03-23T05:11:51;99533.69;;;8.31;100.00
54407;BME280;40313;50.308;30.374;2023-03-23T05:14:18;99528.47;;;8.51;100.00
54407;BME280;40313;50.308;30.374;2023-03-23T05:16:44;99524.16;;;8.67;100.00
54407;BME280;40313;50.308;30.374;2023-03-23T05:19:13;99531.28;;;8.81;100.00
54407;BME280;40313;50.308;30.374;2023-03-23T05:21:42;99532.56;;;8.90;100.00
54407;BME280;40313;50.308;30.374;2023-03-23T05:24:09;99534.88;;;8.96;100.00
54407;BME280;40313;50.308;30.374;2023-03-23T05:26:36;99529.34;;;9.02;100.00
54407;BME280;40313;50.308;30.374;2023-03-23T05:29:03;99531.72;;;9.07;100.00
54407;BME280;40313;50.308;30.374;2023-03-23T05:31:29;99531.47;;;9.11;100.00
54407;BME280;40313;50.308;30.374;2023-03-23T05:33:56;99536.38;;;9.18;100.00
54407;BME280;40313;50.308;30.374;2023-03-23T05:36:22;99533.59;;;9.21;100.00
54407;BME280;40313;50.308;30.374;2023-03-23T05:38:52;99528.22;;;9.24;100.00
54407;BME280;40313;50.308;30.374;2023-03-23T05:41:18;99530.66;;;9.27;100.00
54407;BME280;40313;50.308;30.374;2023-03-23T05:43:45;99533.97;;;9.30;100.00
54407;BME280;40313;50.308;30.374;2023-03-23T05:46:11;99537.72;;;9.25;100.00
54407;BME280;40313;50.308;30.374;2023-03-23T05:48:37;99535.28;;;9.22;100.00
54407;BME280;40313;50.308;30.374;2023-03-23T05:51:04;99538.03;;;9.19;100.00
54407;BME280;40313;50.308;30.374;2023-03-23T05:53:30;99532.06;;;9.16;100.00
54407;BME280;40313;50.308;30.374;2023-03-23T05:56:02;99535.50;;;9.17;100.00
54407;BME280;40313;50.308;30.374;2023-03-23T05:58:28;99542.16;;;9.23;100.00
54407;BME280;40313;50.308;30.374;2023-03-23T06:00:54;99537.31;;;9.32;100.00
54407;BME280;40313;50.308;30.374;2023-03-23T06:03:21;99547.25;;;9.42;100.00
54407;BME280;40313;50.308;30.374;2023-03-23T06:05:47;99546.75;;;9.51;100.00
54407;BME280;40313;50.308;30.374;2023-03-23T06:08:15;99544.66;;;9.58;100.00
54407;BME280;40313;50.308;30.374;2023-03-23T06:10:41;99538.38;;;9.62;100.00
54407;BME280;40313;50.308;30.374;2023-03-23T06:13:10;99542.50;;;9.66;100.00
54407;BME280;40313;50.308;30.374;2023-03-23T06:15:36;99548.44;;;9.68;100.00
54407;BME280;40313;50.308;30.374;2023-03-23T06:18:03;99547.38;;;9.72;100.00
54407;BME280;40313;50.308;30.374;2023-03-23T06:20:30;99539.91;;;9.82;100.00
54407;BME280;40313;50.308;30.374;2023-03-23T06:22:58;99543.75;;;9.91;100.00
54407;BME280;40313;50.308;30.374;2023-03-23T06:25:24;99542.31;;;10.01;100.00
54407;BME280;40313;50.308;30.374;2023-03-23T06:27:51;99546.69;;;10.16;100.00
54407;BME280;40313;50.308;30.374;2023-03-23T06:30:19;99545.56;;;10.36;100.00
54407;BME280;40313;50.308;30.374;2023-03-23T06:32:46;99544.25;;;10.60;100.00
54407;BME280;40313;50.308;30.374;2023-03-23T06:35:13;99550.72;;;10.83;100.00
54407;BME280;40313;50.308;30.374;2023-03-23T06:37:40;99540.78;;;11.04;100.00
54407;BME280;40313;50.308;30.374;2023-03-23T06:40:08;99540.06;;;11.16;100.00
54407;BME280;40313;50.308;30.374;2023-03-23T06:42:35;99540.44;;;11.24;100.00
54407;BME280;40313;50.308;30.374;2023-03-23T06:45:03;99544.72;;;11.26;100.00
54407;BME280;40313;50.308;30.374;2023-03-23T06:47:31;99549.09;;;11.25;100.00
54407;BME280;40313;50.308;30.374;2023-03-23T06:49:57;99551.16;;;11.20;100.00
54407;BME280;40313;50.308;30.374;2023-03-23T06:52:24;99547.13;;;11.29;100.00
54407;BME280;40313;50.308;30.374;2023-03-23T06:54:51;99552.19;;;11.46;100.00
54407;BME280;40313;50.308;30.374;2023-03-23T06:57:17;99543.94;;;11.67;100.00
54407;BME280;40313;50.308;30.374;2023-03-23T06:59:44;99543.19;;;11.93;100.00
54407;BME280;40313;50.308;30.374;2023-03-23T07:02:11;99546.72;;;12.20;100.00
54407;BME280;40313;50.308;30.374;2023-03-23T07:04:40;99540.75;;;12.45;100.00
54407;BME280;40313;50.308;30.374;2023-03-23T07:07:08;99553.13;;;12.69;100.00
54407;BME280;40313;50.308;30.374;2023-03-23T07:09:35;99546.66;;;12.87;100.00
54407;BME280;40313;50.308;30.374;2023-03-23T07:12:02;99546.88;;;13.10;100.00
54407;BME280;40313;50.308;30.374;2023-03-23T07:14:29;99545.31;;;13.33;100.00
54407;BME280;40313;50.308;30.374;2023-03-23T07:16:55;99547.41;;;13.54;100.00
54407;BME280;40313;50.308;30.374;2023-03-23T07:19:22;99548.53;;;13.75;100.00
54407;BME280;40313;50.308;30.374;2023-03-23T07:21:50;99548.59;;;13.87;100.00
54407;BME280;40313;50.308;30.374;2023-03-23T07:24:16;99553.28;;;13.94;100.00
54407;BME280;40313;50.308;30.374;2023-03-23T07:26:44;99547.38;;;14.04;100.00
54407;BME280;40313;50.308;30.374;2023-03-23T07:29:11;99542.31;;;14.13;100.00
54407;BME280;40313;50.308;30.374;2023-03-23T07:31:37;99541.50;;;14.24;100.00
54407;BME280;40313;50.308;30.374;2023-03-23T07:34:04;99549.78;;;14.31;100.00
54407;BME280;40313;50.308;30.374;2023-03-23T07:36:30;99544.69;;;14.41;100.00
54407;BME280;40313;50.308;30.374;2023-03-23T07:38:59;99536.41;;;14.58;100.00
54407;BME280;40313;50.308;30.374;2023-03-23T07:41:25;99539.81;;;14.83;100.00
54407;BME280;40313;50.308;30.374;2023-03-23T07:43:52;99537.00;;;14.97;100.00
54407;BME280;40313;50.308;30.374;2023-03-23T07:46:18;99534.13;;;15.12;100.00
54407;BME280;40313;50.308;30.374;2023-03-23T07:48:45;99540.59;;;15.30;100.00
54407;BME280;40313;50.308;30.374;2023-03-23T07:51:11;99534.88;;;15.48;100.00
54407;BME280;40313;50.308;30.374;2023-03-23T07:53:38;99533.91;;;15.60;100.00
54407;BME280;40313;50.308;30.374;2023-03-23T07:56:07;99533.78;;;15.62;100.00
54407;BME280;40313;50.308;30.374;2023-03-23T07:58:33;99527.56;;;15.63;100.00
54407;BME280;40313;50.308;30.374;2023-03-23T08:01:00;99525.78;;;15.63;100.00
54407;BME280;40313;50.308;30.374;2023-03-23T08:03:26;99526.00;;;15.71;100.00
54407;BME280;40313;50.308;30.374;2023-03-23T08:05:52;99533.66;;;15.86;100.00
54407;BME280;40313;50.308;30.374;2023-03-23T08:08:19;99523.78;;;16.11;100.00
54407;BME280;40313;50.308;30.374;2023-03-23T08:10:45;99523.44;;;16.36;100.00
54407;BME280;40313;50.308;30.374;2023-03-23T08:13:13;99525.47;;;16.65;100.00
54407;BME280;40313;50.308;30.374;2023-03-23T08:15:40;99529.63;;;16.89;100.00
54407;BME280;40313;50.308;30.374;2023-03-23T08:18:07;99523.06;;;17.04;100.00
54407;BME280;40313;50.308;30.374;2023-03-23T08:20:33;99519.41;;;17.17;100.00
54407;BME280;40313;50.308;30.374;2023-03-23T08:23:01;99519.13;;;17.20;100.00
54407;BME280;40313;50.308;30.374;2023-03-23T08:25:28;99518.56;;;17.16;100.00
54407;BME280;40313;50.308;30.374;2023-03-23T08:27:56;99517.84;;;17.14;100.00
54407;BME280;40313;50.308;30.374;2023-03-23T08:30:24;99523.25;;;17.13;100.00
54407;BME280;40313;50.308;30.374;2023-03-23T08:32:54;99520.50;;;17.14;100.00
54407;BME280;40313;50.308;30.374;2023-03-23T08:35:20;99519.31;;;17.28;100.00
54407;BME280;40313;50.308;30.374;2023-03-23T08:37:46;99515.22;;;17.45;100.00
54407;BME280;40313;50.308;30.374;2023-03-23T08:40:17;99520.13;;;17.59;100.00
54407;BME280;40313;50.308;30.374;2023-03-23T08:42:45;99509.28;;;17.62;100.00
54407;BME280;40313;50.308;30.374;2023-03-23T08:45:12;99513.19;;;17.68;100.00
54407;BME280;40313;50.308;30.374;2023-03-23T08:47:43;99516.00;;;17.76;100.00
54407;BME280;40313;50.308;30.374;2023-03-23T08:50:13;99513.75;;;17.82;100.00
54407;BME280;40313;50.308;30.374;2023-03-23T08:52:40;99511.28;;;17.90;100.00
54407;BME280;40313;50.308;30.374;2023-03-23T08:55:07;99506.88;;;18.00;100.00
54407;BME280;40313;50.308;30.374;2023-03-23T08:57:34;99503.16;;;18.12;100.00
54407;BME280;40313;50.308;30.374;2023-03-23T09:00:01;99502.44;;;18.20;100.00
54407;BME280;40313;50.308;30.374;2023-03-23T09:02:38;99503.16;;;18.32;100.00
54407;BME280;40313;50.308;30.374;2023-03-23T09:05:06;99493.84;;;18.28;98.08
54407;BME280;40313;50.308;30.374;2023-03-23T09:07:33;99496.34;;;18.29;96.13
54407;BME280;40313;50.308;30.374;2023-03-23T09:10:00;99502.44;;;18.30;98.19
54407;BME280;40313;50.308;30.374;2023-03-23T09:12:27;99491.44;;;18.35;97.09
54407;BME280;40313;50.308;30.374;2023-03-23T09:14:54;99495.91;;;18.34;93.97
54407;BME280;40313;50.308;30.374;2023-03-23T09:17:21;99495.63;;;18.37;98.26
54407;BME280;40313;50.308;30.374;2023-03-23T09:19:47;99501.06;;;18.36;92.50
54407;BME280;40313;50.308;30.374;2023-03-23T09:22:15;99493.28;;;18.44;94.85
54407;BME280;40313;50.308;30.374;2023-03-23T09:24:44;99489.09;;;18.51;91.62
54407;BME280;40313;50.308;30.374;2023-03-23T09:27:11;99485.72;;;18.59;92.65
54407;BME280;40313;50.308;30.374;2023-03-23T09:29:37;99489.31;;;18.68;92.23
54407;BME280;40313;50.308;30.374;2023-03-23T09:32:03;99488.34;;;18.69;91.82
54407;BME280;40313;50.308;30.374;2023-03-23T09:34:30;99488.22;;;18.70;89.60
54407;BME280;40313;50.308;30.374;2023-03-23T09:37:00;99475.44;;;18.65;90.01
54407;BME280;40313;50.308;30.374;2023-03-23T09:39:30;99478.91;;;18.66;90.01
54407;BME280;40313;50.308;30.374;2023-03-23T09:42:00;99471.25;;;18.63;88.73
54407;BME280;40313;50.308;30.374;2023-03-23T09:44:31;99472.94;;;18.64;89.96
54407;BME280;40313;50.308;30.374;2023-03-23T09:47:01;99469.47;;;18.63;90.76
54407;BME280;40313;50.308;30.374;2023-03-23T09:49:32;99462.78;;;18.69;89.07
54407;BME280;40313;50.308;30.374;2023-03-23T09:52:00;99465.81;;;18.74;87.36
54407;BME280;40313;50.308;30.374;2023-03-23T09:54:29;99460.94;;;18.79;89.39
54407;BME280;40313;50.308;30.374;2023-03-23T09:56:58;99463.44;;;18.91;89.56
54407;BME280;40313;50.308;30.374;2023-03-23T09:59:27;99457.41;;;18.98;86.78
54407;BME280;40313;50.308;30.374;2023-03-23T10:01:57;99459.88;;;19.10;87.11
54407;BME280;40313;50.308;30.374;2023-03-23T10:04:27;99451.91;;;19.20;83.19
54407;BME280;40313;50.308;30.374;2023-03-23T10:06:56;99457.56;;;19.25;81.55
54407;BME280;40313;50.308;30.374;2023-03-23T10:09:23;99449.13;;;19.21;79.95
54407;BME280;40313;50.308;30.374;2023-03-23T10:11:53;99449.25;;;19.20;80.33
54407;BME280;40313;50.308;30.374;2023-03-23T10:14:28;99446.91;;;19.16;81.10
54407;BME280;40313;50.308;30.374;2023-03-23T10:17:01;99449.94;;;19.22;79.44
54407;BME280;40313;50.308;30.374;2023-03-23T10:19:31;99451.59;;;19.23;78.67
54407;BME280;40313;50.308;30.374;2023-03-23T10:22:02;99437.16;;;19.17;73.42
54407;BME280;40313;50.308;30.374;2023-03-23T10:24:31;99441.03;;;19.23;75.77
54407;BME280;40313;50.308;30.374;2023-03-23T10:27:02;99437.13;;;19.27;77.22
54407;BME280;40313;50.308;30.374;2023-03-23T10:29:31;99435.34;;;19.17;73.58
54407;BME280;40313;50.308;30.374;2023-03-23T10:32:02;99434.19;;;19.02;72.76
54407;BME280;40313;50.308;30.374;2023-03-23T10:34:31;99427.97;;;18.93;74.51
54407;BME280;40313;50.308;30.374;2023-03-23T10:37:02;99422.69;;;18.93;75.00
54407;BME280;40313;50.308;30.374;2023-03-23T10:39:32;99416.09;;;18.97;73.09
54407;BME280;40313;50.308;30.374;2023-03-23T10:42:00;99421.63;;;19.04;73.54
54407;BME280;40313;50.308;30.374;2023-03-23T10:44:33;99411.84;;;19.14;74.05
54407;BME280;40313;50.308;30.374;2023-03-23T10:47:00;99415.06;;;19.36;74.85
54407;BME280;40313;50.308;30.374;2023-03-23T10:49:28;99406.63;;;19.50;73.00
54407;BME280;40313;50.308;30.374;2023-03-23T10:51:59;99399.53;;;19.51;70.00
54407;BME280;40313;50.308;30.374;2023-03-23T10:54:32;99401.47;;;19.49;72.76
54407;BME280;40313;50.308;30.374;2023-03-23T10:57:00;99401.25;;;19.42;72.70
54407;BME280;40313;50.308;30.374;2023-03-23T10:59:27;99391.19;;;19.28;69.51
54407;BME280;40313;50.308;30.374;2023-03-23T11:01:56;99394.03;;;19.16;70.25
54407;BME280;40313;50.308;30.374;2023-03-23T11:04:24;99394.59;;;19.10;71.97
54407;BME280;40313;50.308;30.374;2023-03-23T11:06:52;99397.94;;;19.12;71.99
54407;BME280;40313;50.308;30.374;2023-03-23T11:09:19;99390.97;;;19.11;72.13
54407;BME280;40313;50.308;30.374;2023-03-23T11:11:48;99392.47;;;19.24;73.29
54407;BME280;40313;50.308;30.374;2023-03-23T11:14:16;99383.19;;;19.38;74.03
54407;BME280;40313;50.308;30.374;2023-03-23T11:16:45;99381.97;;;19.50;72.40
54407;BME280;40313;50.308;30.374;2023-03-23T11:19:14;99376.75;;;19.58;69.94
54407;BME280;40313;50.308;30.374;2023-03-23T11:21:40;99377.97;;;19.64;68.82
54407;BME280;40313;50.308;30.374;2023-03-23T11:24:11;99380.06;;;19.60;67.94
54407;BME280;40313;50.308;30.374;2023-03-23T11:26:38;99373.16;;;19.59;67.64
54407;BME280;40313;50.308;30.374;2023-03-23T11:29:05;99367.63;;;19.52;65.86
54407;BME280;40313;50.308;30.374;2023-03-23T11:31:36;99368.81;;;19.40;65.37
54407;BME280;40313;50.308;30.374;2023-03-23T11:34:03;99368.50;;;19.43;66.25
54407;BME280;40313;50.308;30.374;2023-03-23T11:36:32;99364.00;;;19.54;64.43
54407;BME280;40313;50.308;30.374;2023-03-23T11:38:59;99354.06;;;19.56;63.32
54407;BME280;40313;50.308;30.374;2023-03-23T11:41:32;99360.44;;;19.63;62.22
54407;BME280;40313;50.308;30.374;2023-03-23T11:44:01;99359.38;;;19.74;62.49
54407;BME280;40313;50.308;30.374;2023-03-23T11:46:30;99355.31;;;19.79;61.16
54407;BME280;40313;50.308;30.374;2023-03-23T11:49:00;99350.16;;;19.78;59.61
54407;BME280;40313;50.308;30.374;2023-03-23T11:51:30;99352.19;;;19.66;58.64
54407;BME280;40313;50.308;30.374;2023-03-23T11:54:00;99341.91;;;19.63;59.92
54407;BME280;40313;50.308;30.374;2023-03-23T11:56:29;99339.19;;;19.55;59.48
54407;BME280;40313;50.308;30.374;2023-03-23T11:58:56;99346.38;;;19.44;59.28
54407;BME280;40313;50.308;30.374;2023-03-23T12:01:30;99342.31;;;19.32;58.83
54407;BME280;40313;50.308;30.374;2023-03-23T12:04:22;99337.22;;;19.21;60.91
54407;BME280;40313;50.308;30.374;2023-03-23T12:06:52;99334.19;;;19.15;60.97
54407;BME280;40313;50.308;30.374;2023-03-23T12:09:27;99333.22;;;19.16;62.03
54407;BME280;40313;50.308;30.374;2023-03-23T12:11:58;99332.22;;;19.17;62.10
54407;BME280;40313;50.308;30.374;2023-03-23T12:14:29;99333.22;;;19.16;61.04
54407;BME280;40313;50.308;30.374;2023-03-23T12:17:00;99327.78;;;19.18;62.35
54407;BME280;40313;50.308;30.374;2023-03-23T12:19:31;99333.28;;;19.25;62.39
54407;BME280;40313;50.308;30.374;2023-03-23T12:22:02;99332.69;;;19.31;62.60
54407;BME280;40313;50.308;30.374;2023-03-23T12:24:38;99327.75;;;19.36;61.28
54407;BME280;40313;50.308;30.374;2023-03-23T12:27:09;99320.13;;;19.33;62.10
54407;BME280;40313;50.308;30.374;2023-03-23T12:29:44;99322.41;;;19.28;62.22
54407;BME280;40313;50.308;30.374;2023-03-23T12:32:23;99315.75;;;19.24;61.14
54407;BME280;40313;50.308;30.374;2023-03-23T12:34:53;99318.00;;;19.19;62.97
54407;BME280;40313;50.308;30.374;2023-03-23T12:37:24;99307.19;;;19.12;62.98
54407;BME280;40313;50.308;30.374;2023-03-23T12:40:03;99312.28;;;19.05;62.23
54407;BME280;40313;50.308;30.374;2023-03-23T12:42:36;99315.88;;;19.04;63.79
54407;BME280;40313;50.308;30.374;2023-03-23T12:45:07;99310.44;;;19.06;65.02
54407;BME280;40313;50.308;30.374;2023-03-23T12:47:45;99311.16;;;19.08;64.14
54407;BME280;40313;50.308;30.374;2023-03-23T12:50:13;99306.53;;;19.10;64.17
54407;BME280;40313;50.308;30.374;2023-03-23T12:52:47;99307.66;;;19.07;64.35
54407;BME280;40313;50.308;30.374;2023-03-23T12:55:21;99301.25;;;19.10;64.45
54407;BME280;40313;50.308;30.374;2023-03-23T12:57:53;99302.06;;;19.10;64.46
54407;BME280;40313;50.308;30.374;2023-03-23T13:00:25;99298.38;;;19.21;64.68
54407;BME280;40313;50.308;30.374;2023-03-23T13:02:59;99295.91;;;19.38;63.73